Time;durP1;ratioP1;P1;durP2;ratioP2;P2;SDS_P1;SDS_P2;PMS_P1;PMS_P2;Temp;Humidity;BMP_temperature;BMP_pressure;BME280_temperature;BME280_humidity;BME280_pressure;Samples;Min_cycle;Max_cycle;Signal;HPM_P1;HPM_P2
2023/07/10 00:00:25;;;;;;;11.10;5.70;;;;;;;;;;4975832;28;20193;-71
2023/07/10 00:02:52;;;;;;;7.60;5.20;;;;;;;;;;4987261;28;20192;-71
2023/07/10 00:05:37;;;;;;;8.10;5.30;;;;;;;;;;4967867;28;20268;-70
2023/07/10 00:08:04;;;;;;;8.73;5.53;;;;;;;;;;4968803;28;20189;-71
2023/07/10 00:10:48;;;;;;;9.23;5.60;;;;;;;;;;4978070;28;20181;-71
2023/07/10 00:13:17;;;;;;;6.73;5.20;;;;;;;;;;4987068;28;20192;-71
2023/07/10 00:15:44;;;;;;;7.93;5.43;;;;;;;;;;4986896;28;20283;-70
2023/07/10 00:18:12;;;;;;;9.27;5.23;;;;;;;;;;4988122;28;20193;-70
2023/07/10 00:20:39;;;;;;;6.60;4.87;;;;;;;;;;4968989;28;20196;-71
2023/07/10 00:23:05;;;;;;;10.00;5.30;;;;;;;;;;4988120;28;20189;-71
2023/07/10 00:25:32;;;;;;;8.50;5.53;;;;;;;;;;4967352;28;20200;-71
2023/07/10 00:27:59;;;;;;;8.97;5.10;;;;;;;;;;4967102;28;20275;-71
2023/07/10 00:30:26;;;;;;;7.93;5.10;;;;;;;;;;4985441;28;20255;-71
2023/07/10 00:32:53;;;;;;;6.70;4.67;;;;;;;;;;4987594;28;20187;-71
2023/07/10 00:35:20;;;;;;;8.30;5.20;;;;;;;;;;4951931;28;20236;-71
2023/07/10 00:37:49;;;;;;;6.90;4.70;;;;;;;;;;4967168;28;20182;-71
2023/07/10 00:40:17;;;;;;;8.63;5.83;;;;;;;;;;4983943;28;20185;-71
2023/07/10 00:42:44;;;;;;;8.63;5.70;;;;;;;;;;4996815;28;20196;-71
2023/07/10 00:45:11;;;;;;;9.73;5.17;;;;;;;;;;4986631;28;20212;-71
2023/07/10 00:47:39;;;;;;;6.23;4.83;;;;;;;;;;4959491;28;20788;-71
2023/07/10 00:50:09;;;;;;;9.50;4.97;;;;;;;;;;4970274;28;20202;-73
2023/07/10 01:28:20;;;;;;;5.77;4.63;;;;;;;;;;4974703;28;20187;-71
2023/07/10 01:30:48;;;;;;;7.13;5.17;;;;;;;;;;4986740;28;20195;-71
2023/07/10 01:33:17;;;;;;;7.87;4.97;;;;;;;;;;4986123;28;20193;-71
2023/07/10 01:35:44;;;;;;;7.27;5.40;;;;;;;;;;4971331;28;20227;-71
2023/07/10 01:38:14;;;;;;;9.30;5.70;;;;;;;;;;4968276;28;20442;-71
2023/07/10 01:40:41;;;;;;;12.80;5.40;;;;;;;;;;4981076;28;20267;-71
2023/07/10 01:43:09;;;;;;;7.37;5.70;;;;;;;;;;4969583;28;20736;-71
2023/07/10 01:45:43;;;;;;;8.90;5.50;;;;;;;;;;4969052;28;20715;-71
2023/07/10 01:48:11;;;;;;;7.13;4.80;;;;;;;;;;4975180;28;20285;-70
2023/07/10 01:50:38;;;;;;;7.97;5.13;;;;;;;;;;4990518;28;20287;-70
2023/07/10 01:53:05;;;;;;;7.47;5.23;;;;;;;;;;4984879;28;20611;-71
2023/07/10 01:55:32;;;;;;;7.10;4.77;;;;;;;;;;4985045;28;20364;-70
2023/07/10 01:57:58;;;;;;;11.23;4.53;;;;;;;;;;4987402;28;20285;-70
2023/07/10 02:00:25;;;;;;;6.70;4.67;;;;;;;;;;4986255;28;20552;-71
2023/07/10 02:02:52;;;;;;;5.50;4.53;;;;;;;;;;4985519;28;20192;-71
2023/07/10 02:05:19;;;;;;;6.47;4.93;;;;;;;;;;4974299;28;20200;-70
2023/07/10 02:07:46;;;;;;;8.00;5.00;;;;;;;;;;4983486;28;20202;-71
2023/07/10 02:10:13;;;;;;;6.53;4.17;;;;;;;;;;4984515;28;20193;-71
2023/07/10 02:12:39;;;;;;;8.90;4.80;;;;;;;;;;4984731;28;20320;-71
2023/07/10 02:15:06;;;;;;;9.63;5.70;;;;;;;;;;4959502;28;20275;-71
2023/07/10 02:17:33;;;;;;;25.67;6.70;;;;;;;;;;4967233;28;20196;-71
2023/07/10 02:20:00;;;;;;;7.60;5.20;;;;;;;;;;4975848;28;20203;-71
2023/07/10 02:22:27;;;;;;;6.43;5.10;;;;;;;;;;4984499;28;20568;-71
2023/07/10 02:24:54;;;;;;;10.10;4.80;;;;;;;;;;4977962;28;20200;-70
2023/07/10 02:27:21;;;;;;;8.13;5.00;;;;;;;;;;4965933;28;20201;-71
2023/07/10 02:29:48;;;;;;;9.03;5.30;;;;;;;;;;4974554;28;20677;-71
2023/07/10 02:32:14;;;;;;;7.40;4.83;;;;;;;;;;4986570;28;20243;-71
2023/07/10 02:34:41;;;;;;;7.43;5.40;;;;;;;;;;4978431;28;20205;-71
2023/07/10 02:37:08;;;;;;;7.40;4.53;;;;;;;;;;4966688;28;20186;-71
2023/07/10 02:39:34;;;;;;;6.23;4.57;;;;;;;;;;4969900;28;20199;-71
2023/07/10 02:42:01;;;;;;;9.20;5.10;;;;;;;;;;4985434;28;20864;-70
2023/07/10 02:44:30;;;;;;;5.80;4.50;;;;;;;;;;4985431;28;20628;-70
2023/07/10 02:46:56;;;;;;;8.77;5.20;;;;;;;;;;4986952;28;20279;-70
2023/07/10 02:49:23;;;;;;;6.60;4.60;;;;;;;;;;4970690;28;20304;-70
2023/07/10 02:51:50;;;;;;;8.17;4.60;;;;;;;;;;4964952;28;20241;-73
2023/07/10 02:54:17;;;;;;;6.40;5.00;;;;;;;;;;4969828;28;20639;-69
2023/07/10 02:57:01;;;;;;;6.23;4.73;;;;;;;;;;5001271;28;20256;-68
2023/07/10 02:59:28;;;;;;;7.87;4.80;;;;;;;;;;4985031;28;20917;-71
2023/07/10 03:02:12;;;;;;;7.40;4.43;;;;;;;;;;4990157;28;20547;-72
2023/07/10 03:04:39;;;;;;;13.33;5.37;;;;;;;;;;4983790;28;21070;-72
2023/07/10 03:07:07;;;;;;;13.93;6.63;;;;;;;;;;4970015;28;20273;-72
2023/07/10 03:09:34;;;;;;;10.30;6.03;;;;;;;;;;4966571;28;20198;-72
2023/07/10 03:12:03;;;;;;;10.17;6.20;;;;;;;;;;4986304;28;20704;-72
2023/07/10 03:14:48;;;;;;;12.50;6.13;;;;;;;;;;4986562;28;20216;-72
2023/07/10 03:17:15;;;;;;;12.47;6.30;;;;;;;;;;4988037;28;20896;-71
2023/07/10 03:19:42;;;;;;;18.00;7.53;;;;;;;;;;4986934;28;20267;-71
2023/07/10 03:22:09;;;;;;;14.20;6.57;;;;;;;;;;4986610;28;20276;-72
2023/07/10 03:24:36;;;;;;;25.17;7.17;;;;;;;;;;4987273;28;20200;-72
2023/07/10 03:27:03;;;;;;;24.43;7.80;;;;;;;;;;4969657;28;20193;-71
2023/07/10 03:29:29;;;;;;;21.33;7.50;;;;;;;;;;4969715;28;20193;-71
2023/07/10 03:31:56;;;;;;;25.43;8.07;;;;;;;;;;4968896;28;20198;-69
2023/07/10 03:34:23;;;;;;;29.13;8.10;;;;;;;;;;4980236;28;20647;-72
2023/07/10 03:36:50;;;;;;;25.33;7.83;;;;;;;;;;4981174;28;20783;-71
2023/07/10 03:39:17;;;;;;;30.10;9.77;;;;;;;;;;4986415;28;20197;-73
2023/07/10 03:41:44;;;;;;;29.27;9.23;;;;;;;;;;4985140;28;20203;-73
2023/07/10 03:44:12;;;;;;;43.00;11.13;;;;;;;;;;4989746;28;20196;-73
2023/07/10 03:46:39;;;;;;;45.93;15.50;;;;;;;;;;4987774;28;20973;-72
2023/07/10 03:49:06;;;;;;;38.30;12.20;;;;;;;;;;4986586;28;20180;-72
2023/07/10 03:51:32;;;;;;;44.63;16.57;;;;;;;;;;4986904;28;20768;-72
2023/07/10 03:53:59;;;;;;;29.43;11.37;;;;;;;;;;4988050;28;20189;-73
2023/07/10 03:56:44;;;;;;;30.03;10.57;;;;;;;;;;4987406;28;20203;-72
2023/07/10 03:59:11;;;;;;;20.20;9.67;;;;;;;;;;4986810;28;20251;-72
2023/07/10 04:01:43;;;;;;;26.73;13.93;;;;;;;;;;4988526;28;20193;-72
2023/07/10 04:04:10;;;;;;;29.67;12.00;;;;;;;;;;4988339;28;20224;-72
2023/07/10 04:06:37;;;;;;;35.27;12.20;;;;;;;;;;4989119;28;20239;-74
2023/07/10 04:09:04;;;;;;;179.03;28.00;;;;;;;;;;4989191;28;20185;-74
2023/07/10 04:11:31;;;;;;;282.90;59.93;;;;;;;;;;4989222;28;20193;-72
2023/07/10 04:13:58;;;;;;;79.10;20.33;;;;;;;;;;4988589;28;20204;-73
2023/07/10 04:16:25;;;;;;;46.27;15.03;;;;;;;;;;4979579;28;20310;-70
2023/07/10 04:18:52;;;;;;;32.07;11.77;;;;;;;;;;4969248;28;20833;-72
2023/07/10 04:21:20;;;;;;;20.90;9.83;;;;;;;;;;4974466;28;20184;-72
2023/07/10 04:23:47;;;;;;;25.20;10.03;;;;;;;;;;4971569;28;20199;-73
2023/07/10 04:26:14;;;;;;;22.87;10.50;;;;;;;;;;4987842;28;20256;-72
2023/07/10 04:28:42;;;;;;;20.90;8.70;;;;;;;;;;4988480;28;20204;-72
2023/07/10 04:31:09;;;;;;;18.83;8.60;;;;;;;;;;4975257;28;20197;-72
2023/07/10 04:33:36;;;;;;;18.53;8.93;;;;;;;;;;4967747;28;20171;-72
2023/07/10 04:36:03;;;;;;;20.77;10.00;;;;;;;;;;4982812;28;20237;-71
2023/07/10 04:38:31;;;;;;;16.10;9.77;;;;;;;;;;4989771;28;20215;-71
2023/07/10 04:40:59;;;;;;;18.20;10.70;;;;;;;;;;4989516;28;20193;-70
2023/07/10 04:43:26;;;;;;;17.00;10.00;;;;;;;;;;4990991;28;20227;-71
2023/07/10 04:45:54;;;;;;;19.23;11.43;;;;;;;;;;4981346;28;20193;-71
2023/07/10 04:48:22;;;;;;;20.97;11.30;;;;;;;;;;4990161;28;20197;-71
2023/07/10 04:50:49;;;;;;;19.60;12.47;;;;;;;;;;4975625;28;20236;-72
2023/07/10 04:53:16;;;;;;;22.73;12.23;;;;;;;;;;4986423;28;20235;-70
2023/07/10 04:55:43;;;;;;;21.40;12.17;;;;;;;;;;4986464;28;20216;-73
2023/07/10 04:58:10;;;;;;;17.80;11.17;;;;;;;;;;4985803;28;20730;-73
2023/07/10 05:00:55;;;;;;;22.67;13.27;;;;;;;;;;4976175;28;20188;-72
2023/07/10 05:03:22;;;;;;;20.20;13.57;;;;;;;;;;4958748;28;20912;-72
2023/07/10 05:05:50;;;;;;;22.27;14.07;;;;;;;;;;4976384;28;20204;-70
2023/07/10 05:08:17;;;;;;;15.87;12.83;;;;;;;;;;4988169;28;20189;-70
2023/07/10 05:10:44;;;;;;;19.13;13.43;;;;;;;;;;4983494;28;20729;-71
2023/07/10 05:13:11;;;;;;;20.30;13.53;;;;;;;;;;4985742;28;20732;-73
2023/07/10 05:15:37;;;;;;;16.73;12.23;;;;;;;;;;4979080;28;20221;-73
2023/07/10 05:18:04;;;;;;;17.10;12.03;;;;;;;;;;4971652;28;20656;-73
2023/07/10 05:20:31;;;;;;;17.07;11.63;;;;;;;;;;4979544;28;20200;-73
2023/07/10 05:22:57;;;;;;;30.73;15.17;;;;;;;;;;4967986;28;20185;-71
2023/07/10 05:25:26;;;;;;;18.67;10.83;;;;;;;;;;4974251;28;20232;-69
2023/07/10 05:27:56;;;;;;;24.93;12.13;;;;;;;;;;4984371;28;20199;-68
2023/07/10 05:30:23;;;;;;;33.97;15.77;;;;;;;;;;4978302;28;20216;-67
2023/07/10 05:32:50;;;;;;;8.27;5.87;;;;;;;;;;4981875;28;20880;-68
2023/07/10 05:35:57;;;;;;;23.33;13.37;;;;;;;;;;4947739;28;20380;-67
2023/07/10 05:38:25;;;;;;;7.03;5.13;;;;;;;;;;4950329;28;20190;-67
2023/07/10 05:40:52;;;;;;;7.97;4.63;;;;;;;;;;4967002;28;20236;-67
2023/07/10 05:43:19;;;;;;;5.73;4.10;;;;;;;;;;4964329;28;20201;-67
2023/07/10 05:45:46;;;;;;;5.07;4.13;;;;;;;;;;4963514;28;20197;-67
2023/07/10 05:48:13;;;;;;;7.17;4.00;;;;;;;;;;4961825;28;20233;-67
2023/07/10 05:50:44;;;;;;;7.30;4.23;;;;;;;;;;4961204;28;20296;-67
2023/07/10 05:53:10;;;;;;;7.50;5.00;;;;;;;;;;4964042;28;20252;-67
2023/07/10 05:55:42;;;;;;;5.57;4.30;;;;;;;;;;4963744;28;20233;-66
2023/07/10 05:58:09;;;;;;;5.97;4.10;;;;;;;;;;4947899;28;20221;-67
2023/07/10 06:00:36;;;;;;;8.53;4.97;;;;;;;;;;4963430;28;20653;-67
2023/07/10 06:03:20;;;;;;;6.40;4.20;;;;;;;;;;4960965;28;20189;-66
2023/07/10 06:05:55;;;;;;;5.47;3.53;;;;;;;;;;4968056;28;20243;-67
2023/07/10 06:08:23;;;;;;;6.10;4.47;;;;;;;;;;4984909;28;20807;-66
2023/07/10 06:10:50;;;;;;;5.13;3.40;;;;;;;;;;4986623;28;20276;-67
2023/07/10 06:13:17;;;;;;;3.77;3.20;;;;;;;;;;4986896;28;20753;-67
2023/07/10 06:15:44;;;;;;;15.47;7.53;;;;;;;;;;4978759;28;20708;-67
2023/07/10 06:18:11;;;;;;;15.10;9.63;;;;;;;;;;4967163;28;20225;-67
2023/07/10 06:20:38;;;;;;;3.60;3.00;;;;;;;;;;4977071;28;20200;-67
2023/07/10 06:23:06;;;;;;;4.30;3.10;;;;;;;;;;4985138;28;20838;-66
2023/07/10 06:25:33;;;;;;;4.47;3.17;;;;;;;;;;4985844;28;20196;-67
2023/07/10 06:28:00;;;;;;;8.00;4.97;;;;;;;;;;4989511;28;20315;-67
2023/07/10 06:30:26;;;;;;;4.10;3.27;;;;;;;;;;4977544;28;20279;-66
2023/07/10 06:32:54;;;;;;;6.60;4.03;;;;;;;;;;4986360;28;20196;-67
2023/07/10 06:35:21;;;;;;;4.93;3.20;;;;;;;;;;4985348;28;20220;-66
2023/07/10 06:37:48;;;;;;;7.20;3.23;;;;;;;;;;4987280;28;20615;-67
2023/07/10 06:40:16;;;;;;;3.53;2.80;;;;;;;;;;4989895;28;20239;-67
2023/07/10 06:42:42;;;;;;;4.00;3.07;;;;;;;;;;4970383;28;20181;-67
2023/07/10 06:45:14;;;;;;;4.57;3.13;;;;;;;;;;4972724;28;20225;-66
2023/07/10 06:47:42;;;;;;;3.53;2.90;;;;;;;;;;4987994;28;20247;-67
2023/07/10 06:50:09;;;;;;;3.40;2.50;;;;;;;;;;4989121;28;20620;-67
2023/07/10 06:52:37;;;;;;;4.87;2.77;;;;;;;;;;4978796;28;20774;-66
2023/07/10 06:55:04;;;;;;;3.13;2.57;;;;;;;;;;4987699;28;20664;-65
2023/07/10 06:57:31;;;;;;;3.33;2.73;;;;;;;;;;4988108;28;20211;-68
2023/07/10 07:00:16;;;;;;;2.70;2.40;;;;;;;;;;4988352;28;20568;-67
2023/07/10 07:02:43;;;;;;;4.83;2.70;;;;;;;;;;4989057;28;20868;-67
2023/07/10 07:05:14;;;;;;;4.17;2.73;;;;;;;;;;4980284;28;20271;-67
2023/07/10 07:07:43;;;;;;;3.93;2.77;;;;;;;;;;4978470;28;20280;-67
2023/07/10 07:10:18;;;;;;;4.03;2.33;;;;;;;;;;4974889;28;20185;-68
2023/07/10 07:12:51;;;;;;;4.47;2.30;;;;;;;;;;4981003;28;20189;-67
2023/07/10 07:15:18;;;;;;;2.90;2.20;;;;;;;;;;4985558;28;20865;-67
2023/07/10 07:17:46;;;;;;;4.17;2.40;;;;;;;;;;4988662;28;20203;-67
2023/07/10 07:20:14;;;;;;;2.47;2.10;;;;;;;;;;4986827;28;20223;-65
2023/07/10 07:22:44;;;;;;;2.53;1.90;;;;;;;;;;4969270;28;20200;-67
2023/07/10 07:25:12;;;;;;;2.77;1.80;;;;;;;;;;4969364;28;20692;-68
2023/07/10 07:27:40;;;;;;;3.03;2.03;;;;;;;;;;4976641;28;20596;-68
2023/07/10 07:30:07;;;;;;;3.60;1.87;;;;;;;;;;4976150;28;20244;-68
2023/07/10 07:32:34;;;;;;;4.57;2.20;;;;;;;;;;4969480;28;20207;-67
2023/07/10 07:38:53;;;;;;;2.27;1.50;;;;;;;;;;4968397;28;20231;-67
2023/07/10 07:41:38;;;;;;;2.47;1.60;;;;;;;;;;4969585;28;20215;-67
2023/07/10 07:44:06;;;;;;;1.80;1.43;;;;;;;;;;4969732;28;20199;-67
2023/07/10 07:46:33;;;;;;;2.50;1.30;;;;;;;;;;4977957;28;20236;-67
2023/07/10 07:49:00;;;;;;;2.40;1.27;;;;;;;;;;4986995;28;20189;-67
2023/07/10 07:51:26;;;;;;;2.70;1.50;;;;;;;;;;4980417;28;20236;-67
2023/07/10 07:54:03;;;;;;;2.60;1.50;;;;;;;;;;4976451;28;20195;-67
2023/07/10 07:56:31;;;;;;;2.13;1.50;;;;;;;;;;4980169;28;20275;-68
2023/07/10 07:58:57;;;;;;;2.13;1.30;;;;;;;;;;4978127;28;20217;-67
2023/07/10 08:01:24;;;;;;;3.10;1.50;;;;;;;;;;4972114;28;20545;-67
2023/07/10 08:03:51;;;;;;;1.40;1.30;;;;;;;;;;4984345;28;20214;-67
2023/07/10 08:06:35;;;;;;;2.40;1.07;;;;;;;;;;4975224;28;20182;-68
2023/07/10 08:09:03;;;;;;;3.00;1.43;;;;;;;;;;4985107;28;20273;-67
2023/07/10 08:11:29;;;;;;;2.27;1.30;;;;;;;;;;4976311;28;20644;-68
2023/07/10 08:13:56;;;;;;;1.80;1.40;;;;;;;;;;4984069;28;20251;-68
2023/07/10 08:16:23;;;;;;;1.93;1.20;;;;;;;;;;4976101;28;20685;-68
2023/07/10 08:19:07;;;;;;;2.13;1.30;;;;;;;;;;4968826;28;20260;-67
2023/07/10 08:21:34;;;;;;;1.90;1.60;;;;;;;;;;4968675;28;20194;-68
2023/07/10 08:24:01;;;;;;;1.57;1.47;;;;;;;;;;4968416;28;20959;-66
2023/07/10 08:26:29;;;;;;;1.63;1.30;;;;;;;;;;4973423;28;20260;-68
2023/07/10 08:28:56;;;;;;;1.47;1.30;;;;;;;;;;4966679;28;20197;-67
2023/07/10 08:31:24;;;;;;;2.90;1.40;;;;;;;;;;4967273;28;20217;-68
2023/07/10 08:33:51;;;;;;;2.30;1.17;;;;;;;;;;4936290;28;20219;-67
2023/07/10 08:36:18;;;;;;;2.80;1.60;;;;;;;;;;4966708;28;20580;-67
2023/07/10 08:38:45;;;;;;;1.67;1.33;;;;;;;;;;4940712;28;20774;-68
2023/07/10 08:41:19;;;;;;;1.43;1.20;;;;;;;;;;4968716;28;20197;-68
2023/07/10 08:43:45;;;;;;;2.70;1.20;;;;;;;;;;4975273;28;20239;-68
2023/07/10 08:46:17;;;;;;;1.77;1.40;;;;;;;;;;4962694;28;20194;-67
2023/07/10 08:48:49;;;;;;;2.40;1.40;;;;;;;;;;4949931;28;20229;-67
2023/07/10 08:51:19;;;;;;;4.20;1.47;;;;;;;;;;4962584;28;20317;-67
2023/07/10 08:53:52;;;;;;;1.20;1.10;;;;;;;;;;4954951;28;20278;-66
2023/07/10 08:56:23;;;;;;;2.07;1.40;;;;;;;;;;4968102;28;20236;-67
2023/07/10 08:58:50;;;;;;;2.03;1.23;;;;;;;;;;4935094;28;20261;-67
2023/07/10 09:01:26;;;;;;;2.37;1.30;;;;;;;;;;4963385;28;20197;-65
2023/07/10 09:03:55;;;;;;;6.43;1.60;;;;;;;;;;4966859;28;20668;-66
2023/07/10 09:06:26;;;;;;;1.47;1.20;;;;;;;;;;4945774;28;20201;-65
2023/07/10 09:08:56;;;;;;;1.67;1.40;;;;;;;;;;4963078;28;20629;-65
2023/07/10 09:11:24;;;;;;;2.10;1.57;;;;;;;;;;4967896;28;20857;-65
2023/07/10 09:13:59;;;;;;;1.87;1.30;;;;;;;;;;4950848;28;20188;-65
2023/07/10 09:16:43;;;;;;;2.47;1.50;;;;;;;;;;4953176;28;20445;-65
2023/07/10 09:19:14;;;;;;;2.27;1.30;;;;;;;;;;4968507;28;20782;-67
2023/07/10 09:21:41;;;;;;;1.87;1.30;;;;;;;;;;4947184;28;21001;-67
2023/07/10 09:24:12;;;;;;;2.70;1.50;;;;;;;;;;4950965;28;20242;-67
2023/07/10 09:26:39;;;;;;;2.30;1.20;;;;;;;;;;4941165;28;20231;-67
2023/07/10 09:29:09;;;;;;;1.77;1.40;;;;;;;;;;4949000;29;20666;-67
2023/07/10 09:31:56;;;;;;;2.10;1.40;;;;;;;;;;4956911;28;20289;-71
2023/07/10 09:34:24;;;;;;;1.40;1.30;;;;;;;;;;4954727;28;20242;-73
2023/07/10 09:36:51;;;;;;;2.00;1.40;;;;;;;;;;4955992;28;20222;-68
2023/07/10 09:39:19;;;;;;;2.07;1.47;;;;;;;;;;4967257;28;20202;-66
2023/07/10 09:41:46;;;;;;;1.93;1.27;;;;;;;;;;4967426;28;20194;-67
2023/07/10 09:44:17;;;;;;;1.30;1.20;;;;;;;;;;4968192;28;20245;-66
2023/07/10 09:46:44;;;;;;;1.57;1.33;;;;;;;;;;4967053;28;20242;-67
2023/07/10 09:49:15;;;;;;;2.30;1.30;;;;;;;;;;4967301;28;20221;-67
2023/07/10 09:51:55;;;;;;;4.50;1.50;;;;;;;;;;4969415;28;20225;-67
2023/07/10 09:54:22;;;;;;;2.33;1.30;;;;;;;;;;4960003;28;20291;-69
2023/07/10 09:56:50;;;;;;;1.67;1.20;;;;;;;;;;4967467;28;20217;-67
2023/07/10 09:59:19;;;;;;;2.37;1.50;;;;;;;;;;4962504;28;20650;-67
2023/07/10 10:01:50;;;;;;;1.97;1.30;;;;;;;;;;4960366;28;20305;-67
2023/07/10 10:04:21;;;;;;;2.53;1.33;;;;;;;;;;4938071;29;20190;-67
2023/07/10 10:06:53;;;;;;;1.43;1.30;;;;;;;;;;4962890;28;20627;-69
2023/07/10 10:09:35;;;;;;;1.50;1.13;;;;;;;;;;4980281;28;20207;-69
2023/07/10 10:12:56;;;;;;;1.97;1.20;;;;;;;;;;4963510;28;20287;-68
2023/07/10 10:16:37;;;;;;;1.33;1.23;;;;;;;;;;4927978;28;20279;-66
2023/07/10 10:24:04;;;;;;;;;;;;;;;;;;;;;
2023/07/10 10:27:31;;;;;;;;;;;;;;;;;;;;;
2023/07/10 10:31:18;;;;;;;;;;;;;;;;;;;;;
2023/07/10 10:34:36;;;;;;;1.47;1.20;;;;;;;;;;4897011;29;20219;-66
2023/07/10 10:37:59;;;;;;;1.20;1.10;;;;;;;;;;4912425;28;20221;-66
2023/07/10 10:41:31;;;;;;;1.40;1.30;;;;;;;;;;4956746;28;20181;-66
2023/07/10 10:48:26;;;;;;;1.63;1.23;;;;;;;;;;4967904;28;20233;-64
2023/07/10 10:51:15;;;;;;;1.70;1.40;;;;;;;;;;4959324;28;20729;-64
2023/07/10 10:53:50;;;;;;;3.30;1.60;;;;;;;;;;4961656;28;20365;-64
2023/07/10 10:56:19;;;;;;;1.90;1.67;;;;;;;;;;4950667;28;20209;-64
2023/07/10 10:59:02;;;;;;;1.30;1.20;;;;;;;;;;4958371;28;20211;-66
2023/07/10 11:01:37;;;;;;;1.33;1.23;;;;;;;;;;4954532;28;20669;-66
2023/07/10 11:04:22;;;;;;;1.50;1.30;;;;;;;;;;4944752;28;20523;-67
2023/07/10 11:06:51;;;;;;;1.87;1.40;;;;;;;;;;4966001;28;20193;-66
2023/07/10 11:09:27;;;;;;;2.73;1.40;;;;;;;;;;4969050;28;20733;-67
2023/07/10 11:11:54;;;;;;;3.37;1.43;;;;;;;;;;4966248;28;20284;-67
2023/07/10 11:14:21;;;;;;;2.17;1.30;;;;;;;;;;4949340;28;20204;-67
2023/07/10 11:16:51;;;;;;;1.53;1.40;;;;;;;;;;4953542;28;20637;-67
2023/07/10 11:19:21;;;;;;;1.83;1.50;;;;;;;;;;4949331;28;21106;-67
2023/07/10 11:21:48;;;;;;;2.20;1.43;;;;;;;;;;4949182;28;20190;-66
2023/07/10 11:24:16;;;;;;;1.73;1.20;;;;;;;;;;4951666;28;20201;-65
2023/07/10 11:26:47;;;;;;;2.00;1.50;;;;;;;;;;4960478;28;20206;-66
2023/07/10 11:29:37;;;;;;;1.77;1.30;;;;;;;;;;4948476;29;20605;-66
2023/07/10 11:32:09;;;;;;;2.60;1.50;;;;;;;;;;4949117;28;20661;-65
2023/07/10 11:34:37;;;;;;;1.40;1.27;;;;;;;;;;4989335;28;20215;-65
2023/07/10 11:37:07;;;;;;;1.60;1.10;;;;;;;;;;4958340;28;20222;-65
2023/07/10 11:39:36;;;;;;;3.40;1.27;;;;;;;;;;4955119;28;20197;-64
2023/07/10 11:42:04;;;;;;;3.07;1.67;;;;;;;;;;4953374;28;20301;-67
2023/07/10 11:44:32;;;;;;;1.57;1.20;;;;;;;;;;4933311;29;20717;-67
2023/07/10 11:47:00;;;;;;;2.50;1.50;;;;;;;;;;4941929;28;20294;-66
2023/07/10 11:49:28;;;;;;;1.77;1.30;;;;;;;;;;4970170;28;20188;-64
2023/07/10 11:52:10;;;;;;;2.30;1.40;;;;;;;;;;4963076;28;20598;-66
2023/07/10 11:54:38;;;;;;;1.70;1.30;;;;;;;;;;4950995;29;20554;-66
2023/07/10 11:57:08;;;;;;;1.70;1.33;;;;;;;;;;4945236;28;20705;-66
2023/07/10 11:59:48;;;;;;;2.93;1.50;;;;;;;;;;4969717;28;20616;-67
2023/07/10 12:02:44;;;;;;;2.00;1.30;;;;;;;;;;4968823;28;20197;-66
2023/07/10 12:05:11;;;;;;;1.73;1.20;;;;;;;;;;4969643;28;20189;-67
2023/07/10 12:07:48;;;;;;;1.57;1.20;;;;;;;;;;4969338;28;20196;-67
2023/07/10 12:10:15;;;;;;;2.03;1.57;;;;;;;;;;4988802;28;20262;-66
2023/07/10 12:13:00;;;;;;;1.40;1.10;;;;;;;;;;4971369;28;20195;-66
2023/07/10 12:15:27;;;;;;;1.57;1.37;;;;;;;;;;4968672;28;20187;-67
2023/07/10 12:17:54;;;;;;;2.37;1.13;;;;;;;;;;4964760;28;20312;-66
2023/07/10 12:20:25;;;;;;;1.97;1.10;;;;;;;;;;4968437;28;20198;-66
2023/07/10 12:22:53;;;;;;;1.90;1.30;;;;;;;;;;4969363;28;20705;-66
2023/07/10 12:25:20;;;;;;;1.63;1.00;;;;;;;;;;4935848;28;20194;-66
2023/07/10 12:27:47;;;;;;;2.37;1.20;;;;;;;;;;4966178;28;20747;-66
2023/07/10 12:30:34;;;;;;;1.87;1.20;;;;;;;;;;4968573;28;20272;-66
2023/07/10 12:33:01;;;;;;;2.07;1.20;;;;;;;;;;4950887;28;20919;-66
2023/07/10 12:35:30;;;;;;;1.60;0.90;;;;;;;;;;4967796;28;20200;-66
2023/07/10 12:37:57;;;;;;;1.17;1.07;;;;;;;;;;4949986;28;20323;-65
2023/07/10 12:40:24;;;;;;;2.17;1.70;;;;;;;;;;4959548;28;20255;-66
2023/07/10 12:42:51;;;;;;;3.07;1.10;;;;;;;;;;4946117;28;20272;-66
2023/07/10 12:45:39;;;;;;;1.30;1.00;;;;;;;;;;4963694;28;20283;-64
2023/07/10 12:48:10;;;;;;;1.23;1.07;;;;;;;;;;4988907;28;20294;-63
2023/07/10 12:50:40;;;;;;;7.13;1.60;;;;;;;;;;4970490;28;20650;-63
2023/07/10 12:53:25;;;;;;;3.97;1.20;;;;;;;;;;4950624;28;20227;-66
2023/07/10 12:55:53;;;;;;;1.73;1.20;;;;;;;;;;4969840;28;20197;-66
2023/07/10 12:58:33;;;;;;;1.90;1.13;;;;;;;;;;4964846;28;20232;-66
2023/07/10 13:01:16;;;;;;;2.87;1.03;;;;;;;;;;4984851;28;20205;-67
2023/07/10 13:03:43;;;;;;;2.83;1.00;;;;;;;;;;4967863;28;20527;-67
2023/07/10 13:06:10;;;;;;;2.57;1.20;;;;;;;;;;4955329;28;20731;-65
2023/07/10 13:08:38;;;;;;;2.53;1.30;;;;;;;;;;4953198;28;20205;-67
2023/07/10 13:11:05;;;;;;;2.13;1.10;;;;;;;;;;4976830;28;20544;-67
2023/07/10 13:13:34;;;;;;;1.53;0.97;;;;;;;;;;4987278;28;20191;-67
2023/07/10 13:16:01;;;;;;;1.70;1.10;;;;;;;;;;4984260;28;20190;-65
2023/07/10 13:18:33;;;;;;;1.60;1.10;;;;;;;;;;4967917;28;20288;-67
2023/07/10 13:21:01;;;;;;;2.10;1.40;;;;;;;;;;4956740;28;20208;-67
2023/07/10 13:23:28;;;;;;;1.63;0.90;;;;;;;;;;4986121;28;20626;-66
2023/07/10 13:25:56;;;;;;;3.33;1.00;;;;;;;;;;4986095;28;20552;-66
2023/07/10 13:28:24;;;;;;;1.73;1.00;;;;;;;;;;4985796;28;20193;-67
2023/07/10 13:31:13;;;;;;;1.93;1.10;;;;;;;;;;4985619;28;20194;-65
2023/07/10 13:33:40;;;;;;;2.53;0.93;;;;;;;;;;4987136;28;20560;-65
2023/07/10 13:36:14;;;;;;;2.73;1.17;;;;;;;;;;4981705;28;20203;-65
2023/07/10 13:38:41;;;;;;;1.67;1.00;;;;;;;;;;4962864;28;20210;-67
2023/07/10 13:44:28;;;;;;;1.30;0.90;;;;;;;;;;4986306;28;20196;-67
2023/07/10 13:46:55;;;;;;;1.70;1.10;;;;;;;;;;4976271;28;20574;-67
2023/07/10 13:49:22;;;;;;;3.27;1.20;;;;;;;;;;4974300;28;20194;-66
2023/07/10 13:51:48;;;;;;;1.23;1.00;;;;;;;;;;4988293;28;20232;-67
2023/07/10 13:54:16;;;;;;;1.70;0.90;;;;;;;;;;4988776;28;20193;-67
2023/07/10 13:56:46;;;;;;;2.53;1.10;;;;;;;;;;4987461;28;20185;-66
2023/07/10 13:59:16;;;;;;;2.50;0.90;;;;;;;;;;4989169;28;20182;-67
2023/07/10 14:01:44;;;;;;;2.20;1.10;;;;;;;;;;4988771;28;20308;-67
2023/07/10 14:04:10;;;;;;;2.50;1.17;;;;;;;;;;4988584;28;20287;-66
2023/07/10 14:06:39;;;;;;;3.43;1.20;;;;;;;;;;4980687;28;20224;-67
2023/07/10 14:09:09;;;;;;;2.77;0.90;;;;;;;;;;4966255;28;20202;-66
2023/07/10 14:11:36;;;;;;;2.70;0.80;;;;;;;;;;4979659;28;20244;-66
2023/07/10 14:14:03;;;;;;;1.57;0.90;;;;;;;;;;4987932;28;20205;-66
2023/07/10 14:16:48;;;;;;;1.47;0.93;;;;;;;;;;4988698;28;20176;-66
2023/07/10 14:19:16;;;;;;;3.17;1.33;;;;;;;;;;4953357;28;20220;-66
2023/07/10 14:21:43;;;;;;;1.57;1.10;;;;;;;;;;4980254;28;20261;-66
2023/07/10 14:24:10;;;;;;;2.50;0.80;;;;;;;;;;4984734;28;20549;-66
2023/07/10 14:26:38;;;;;;;2.20;1.00;;;;;;;;;;4988964;28;20197;-66
2023/07/10 14:29:05;;;;;;;2.73;0.90;;;;;;;;;;4987370;28;20193;-67
2023/07/10 14:31:32;;;;;;;2.70;1.10;;;;;;;;;;4976475;28;20195;-65
2023/07/10 14:33:58;;;;;;;5.47;1.20;;;;;;;;;;4988630;28;20259;-67
2023/07/10 14:36:26;;;;;;;2.13;1.00;;;;;;;;;;4985907;28;20185;-67
2023/07/10 14:38:53;;;;;;;2.80;1.17;;;;;;;;;;4988369;28;20303;-67
2023/07/10 14:41:23;;;;;;;1.10;0.80;;;;;;;;;;4988475;28;20200;-67
2023/07/10 14:44:07;;;;;;;2.10;1.27;;;;;;;;;;4987182;28;20247;-67
2023/07/10 14:46:34;;;;;;;3.47;1.13;;;;;;;;;;4984793;28;20217;-66
2023/07/10 14:49:14;;;;;;;1.53;1.00;;;;;;;;;;4972135;28;20280;-67
2023/07/10 14:51:41;;;;;;;1.43;1.10;;;;;;;;;;4993068;28;20232;-67
2023/07/10 14:54:12;;;;;;;1.50;1.13;;;;;;;;;;4988820;28;20184;-67
2023/07/10 14:56:56;;;;;;;1.20;0.90;;;;;;;;;;4968449;28;20212;-67
2023/07/10 14:59:23;;;;;;;2.17;1.03;;;;;;;;;;4991058;28;20203;-67
2023/07/10 15:01:50;;;;;;;2.40;1.10;;;;;;;;;;4990046;28;20256;-67
2023/07/10 15:04:17;;;;;;;1.90;1.20;;;;;;;;;;4992752;28;20200;-67
2023/07/10 15:07:02;;;;;;;3.80;1.10;;;;;;;;;;4991882;28;20173;-66
2023/07/10 15:09:29;;;;;;;2.60;1.40;;;;;;;;;;4974735;28;20287;-66
2023/07/10 15:12:14;;;;;;;1.87;1.10;;;;;;;;;;4975982;28;20177;-67
2023/07/10 15:14:40;;;;;;;1.83;1.20;;;;;;;;;;4975342;28;20176;-73
2023/07/10 15:17:12;;;;;;;3.17;1.27;;;;;;;;;;4955604;28;20854;-66
2023/07/10 15:19:39;;;;;;;3.63;1.43;;;;;;;;;;4975378;28;20201;-70
2023/07/10 15:22:10;;;;;;;7.40;2.03;;;;;;;;;;4995242;28;20563;-70
2023/07/10 15:24:37;;;;;;;3.70;1.40;;;;;;;;;;4974516;28;20196;-72
2023/07/10 15:27:04;;;;;;;1.70;1.10;;;;;;;;;;4975133;28;20193;-69
2023/07/10 15:29:32;;;;;;;2.50;1.40;;;;;;;;;;4974870;28;20209;-69
2023/07/10 15:32:01;;;;;;;2.97;1.80;;;;;;;;;;4968918;28;20201;-71
2023/07/10 15:34:28;;;;;;;4.00;1.67;;;;;;;;;;4951234;28;20213;-71
2023/07/10 15:36:55;;;;;;;1.67;1.50;;;;;;;;;;4968350;28;20897;-69
2023/07/10 15:39:22;;;;;;;4.20;1.60;;;;;;;;;;4991920;28;20225;-69
2023/07/10 15:41:49;;;;;;;2.83;1.50;;;;;;;;;;4990757;28;20192;-73
2023/07/10 15:44:16;;;;;;;2.97;1.40;;;;;;;;;;4974394;28;20189;-69
2023/07/10 15:46:44;;;;;;;5.87;1.70;;;;;;;;;;4974393;28;20200;-70
2023/07/10 15:49:17;;;;;;;2.53;1.30;;;;;;;;;;4970807;28;20185;-68
2023/07/10 15:51:45;;;;;;;2.80;1.53;;;;;;;;;;4993192;28;20951;-71
2023/07/10 15:54:12;;;;;;;2.63;1.40;;;;;;;;;;4971206;28;20197;-73